sensor_id;sensor_type;location;lat;lon;timestamp;pressure;altitude;pressure_sealevel;temperature;humidity
43681;BME280;29281;50.356;30.894;2023-03-03T00:00:45;100316.73;;;2.85;98.26
43681;BME280;29281;50.356;30.894;2023-03-03T00:01:48;100324.80;;;2.79;98.24
43681;BME280;29281;50.356;30.894;2023-03-03T00:02:53;100315.16;;;2.79;98.28
43681;BME280;29281;50.356;30.894;2023-03-03T00:03:56;100314.35;;;2.77;97.95
43681;BME280;29281;50.356;30.894;2023-03-03T00:04:59;100316.44;;;2.68;97.87
43681;BME280;29281;50.356;30.894;2023-03-03T00:06:03;100312.11;;;2.67;98.18
43681;BME280;29281;50.356;30.894;2023-03-03T00:07:07;100309.38;;;2.70;98.61
43681;BME280;29281;50.356;30.894;2023-03-03T00:08:10;100313.62;;;2.74;97.80
43681;BME280;29281;50.356;30.894;2023-03-03T00:09:14;100310.20;;;2.72;97.70
43681;BME280;29281;50.356;30.894;2023-03-03T00:10:18;100309.16;;;2.76;97.70
43681;BME280;29281;50.356;30.894;2023-03-03T00:11:21;100306.48;;;2.77;97.86
43681;BME280;29281;50.356;30.894;2023-03-03T00:12:26;100305.63;;;2.77;98.22
43681;BME280;29281;50.356;30.894;2023-03-03T00:13:30;100310.02;;;2.76;97.97
43681;BME280;29281;50.356;30.894;2023-03-03T00:14:34;100296.86;;;2.78;98.20
43681;BME280;29281;50.356;30.894;2023-03-03T00:15:37;100295.14;;;2.77;98.01
43681;BME280;29281;50.356;30.894;2023-03-03T00:16:39;100294.28;;;2.76;98.26
43681;BME280;29281;50.356;30.894;2023-03-03T00:17:43;100293.33;;;2.79;98.68
43681;BME280;29281;50.356;30.894;2023-03-03T00:18:46;100286.27;;;2.81;98.56
43681;BME280;29281;50.356;30.894;2023-03-03T00:19:51;100287.98;;;2.82;98.72
43681;BME280;29281;50.356;30.894;2023-03-03T00:20:55;100293.27;;;2.80;99.52
43681;BME280;29281;50.356;30.894;2023-03-03T00:22:06;100285.30;;;2.83;99.62
43681;BME280;29281;50.356;30.894;2023-03-03T00:23:16;100286.16;;;2.84;100.00
43681;BME280;29281;50.356;30.894;2023-03-03T00:24:30;100284.25;;;2.89;99.30
43681;BME280;29281;50.356;30.894;2023-03-03T00:25:30;100284.11;;;2.92;99.47
43681;BME280;29281;50.356;30.894;2023-03-03T00:26:36;100282.19;;;2.97;99.11
43681;BME280;29281;50.356;30.894;2023-03-03T00:27:42;100276.04;;;2.98;98.65
43681;BME280;29281;50.356;30.894;2023-03-03T00:28:48;100268.97;;;3.00;98.09
43681;BME280;29281;50.356;30.894;2023-03-03T00:29:54;100270.69;;;3.01;97.71
43681;BME280;29281;50.356;30.894;2023-03-03T00:30:59;100271.75;;;2.96;97.79
43681;BME280;29281;50.356;30.894;2023-03-03T00:32:09;100269.94;;;2.98;97.73
43681;BME280;29281;50.356;30.894;2023-03-03T00:33:52;100263.94;;;2.94;98.12
43681;BME280;29281;50.356;30.894;2023-03-03T00:35:27;100268.82;;;3.05;97.44
43681;BME280;29281;50.356;30.894;2023-03-03T00:36:35;100263.48;;;3.06;97.50
43681;BME280;29281;50.356;30.894;2023-03-03T00:37:38;100272.35;;;3.04;97.33
43681;BME280;29281;50.356;30.894;2023-03-03T00:38:46;100267.83;;;3.07;97.27
43681;BME280;29281;50.356;30.894;2023-03-03T00:39:48;100258.98;;;3.10;97.28
43681;BME280;29281;50.356;30.894;2023-03-03T00:40:51;100258.23;;;3.06;97.61
43681;BME280;29281;50.356;30.894;2023-03-03T00:41:58;100258.98;;;3.10;97.26
43681;BME280;29281;50.356;30.894;2023-03-03T00:43:21;100260.59;;;3.14;97.14
43681;BME280;29281;50.356;30.894;2023-03-03T00:45:39;100253.58;;;3.14;97.21
43681;BME280;29281;50.356;30.894;2023-03-03T00:46:43;100257.81;;;3.18;97.36
43681;BME280;29281;50.356;30.894;2023-03-03T00:47:51;100255.14;;;3.20;97.18
43681;BME280;29281;50.356;30.894;2023-03-03T00:48:54;100253.53;;;3.16;97.15
43681;BME280;29281;50.356;30.894;2023-03-03T00:51:24;100249.19;;;3.15;97.33
43681;BME280;29281;50.356;30.894;2023-03-03T00:52:26;100249.09;;;3.18;98.13
43681;BME280;29281;50.356;30.894;2023-03-03T00:53:30;100250.75;;;3.21;97.75
43681;BME280;29281;50.356;30.894;2023-03-03T00:54:33;100247.32;;;3.18;97.11
43681;BME280;29281;50.356;30.894;2023-03-03T00:55:35;100245.41;;;3.22;97.80
43681;BME280;29281;50.356;30.894;2023-03-03T00:56:41;100251.41;;;3.26;97.70
43681;BME280;29281;50.356;30.894;2023-03-03T00:57:44;100244.39;;;3.26;97.85
43681;BME280;29281;50.356;30.894;2023-03-03T00:58:49;100240.06;;;3.25;97.15
43681;BME280;29281;50.356;30.894;2023-03-03T00:59:54;100242.98;;;3.17;97.49
43681;BME280;29281;50.356;30.894;2023-03-03T01:00:57;100241.16;;;3.20;97.40
43681;BME280;29281;50.356;30.894;2023-03-03T01:02:04;100239.61;;;3.14;97.79
43681;BME280;29281;50.356;30.894;2023-03-03T01:03:09;100239.45;;;3.18;98.12
43681;BME280;29281;50.356;30.894;2023-03-03T01:04:13;100235.38;;;3.10;97.78
43681;BME280;29281;50.356;30.894;2023-03-03T01:05:16;100232.54;;;3.16;98.13
43681;BME280;29281;50.356;30.894;2023-03-03T01:06:20;100235.22;;;3.14;97.89
43681;BME280;29281;50.356;30.894;2023-03-03T01:07:23;100231.58;;;3.18;97.60
43681;BME280;29281;50.356;30.894;2023-03-03T01:08:29;100224.56;;;3.19;97.43
43681;BME280;29281;50.356;30.894;2023-03-03T01:09:32;100227.90;;;3.23;97.13
43681;BME280;29281;50.356;30.894;2023-03-03T01:10:37;100226.27;;;3.20;97.08
43681;BME280;29281;50.356;30.894;2023-03-03T01:11:42;100230.72;;;3.18;97.07
43681;BME280;29281;50.356;30.894;2023-03-03T01:12:47;100230.66;;;3.20;97.11
43681;BME280;29281;50.356;30.894;2023-03-03T01:13:55;100224.50;;;3.21;97.11
43681;BME280;29281;50.356;30.894;2023-03-03T01:15:02;100219.97;;;3.24;97.04
43681;BME280;29281;50.356;30.894;2023-03-03T01:16:05;100225.63;;;3.13;97.47
43681;BME280;29281;50.356;30.894;2023-03-03T01:17:10;100218.17;;;3.03;98.71
43681;BME280;29281;50.356;30.894;2023-03-03T01:18:14;100221.64;;;3.03;98.76
43681;BME280;29281;50.356;30.894;2023-03-03T01:19:18;100218.17;;;3.03;98.50
43681;BME280;29281;50.356;30.894;2023-03-03T01:20:21;100217.01;;;3.10;98.32
43681;BME280;29281;50.356;30.894;2023-03-03T01:21:24;100217.87;;;3.10;98.78
43681;BME280;29281;50.356;30.894;2023-03-03T01:22:28;100222.15;;;3.13;98.61
43681;BME280;29281;50.356;30.894;2023-03-03T01:23:31;100208.92;;;3.16;99.27
43681;BME280;29281;50.356;30.894;2023-03-03T01:24:34;100223.22;;;3.07;98.69
43681;BME280;29281;50.356;30.894;2023-03-03T01:25:41;100220.25;;;2.93;99.05
43681;BME280;29281;50.356;30.894;2023-03-03T01:26:45;100212.73;;;3.07;99.58
43681;BME280;29281;50.356;30.894;2023-03-03T01:27:48;100217.70;;;3.15;98.72
43681;BME280;29281;50.356;30.894;2023-03-03T01:28:54;100214.06;;;3.19;98.30
43681;BME280;29281;50.356;30.894;2023-03-03T01:29:57;100213.02;;;3.23;98.15
43681;BME280;29281;50.356;30.894;2023-03-03T01:31:01;100212.52;;;3.13;97.75
43681;BME280;29281;50.356;30.894;2023-03-03T01:32:05;100212.52;;;3.13;99.12
43681;BME280;29281;50.356;30.894;2023-03-03T01:33:08;100207.10;;;3.18;98.72
43681;BME280;29281;50.356;30.894;2023-03-03T01:34:13;100214.97;;;3.18;97.84
43681;BME280;29281;50.356;30.894;2023-03-03T01:35:17;100209.83;;;3.15;97.87
43681;BME280;29281;50.356;30.894;2023-03-03T01:36:24;100214.33;;;3.11;97.86
43681;BME280;29281;50.356;30.894;2023-03-03T01:37:28;100207.48;;;3.07;97.97
43681;BME280;29281;50.356;30.894;2023-03-03T01:38:33;100208.34;;;3.08;97.80
43681;BME280;29281;50.356;30.894;2023-03-03T01:39:36;100201.52;;;3.04;97.90
43681;BME280;29281;50.356;30.894;2023-03-03T01:40:40;100203.09;;;3.08;97.63
43681;BME280;29281;50.356;30.894;2023-03-03T01:41:43;100199.75;;;3.04;98.47
43681;BME280;29281;50.356;30.894;2023-03-03T01:42:48;100204.00;;;3.07;98.26
43681;BME280;29281;50.356;30.894;2023-03-03T01:43:51;100201.67;;;2.99;98.33
43681;BME280;29281;50.356;30.894;2023-03-03T01:45:11;100187.06;;;2.92;99.10
43681;BME280;29281;50.356;30.894;2023-03-03T01:47:29;100192.44;;;2.89;99.25
43681;BME280;29281;50.356;30.894;2023-03-03T01:48:39;100191.69;;;2.86;99.43
43681;BME280;29281;50.356;30.894;2023-03-03T01:49:54;100193.05;;;2.96;99.07
43681;BME280;29281;50.356;30.894;2023-03-03T01:50:55;100198.09;;;3.02;98.58
43681;BME280;29281;50.356;30.894;2023-03-03T01:52:07;100191.47;;;3.15;97.65
43681;BME280;29281;50.356;30.894;2023-03-03T01:53:14;100189.75;;;3.14;97.45
43681;BME280;29281;50.356;30.894;2023-03-03T01:54:19;100196.08;;;3.08;97.98
43681;BME280;29281;50.356;30.894;2023-03-03T01:55:19;100190.33;;;2.99;98.82
43681;BME280;29281;50.356;30.894;2023-03-03T01:56:25;100188.66;;;2.96;98.70
43681;BME280;29281;50.356;30.894;2023-03-03T01:57:34;100188.56;;;2.99;99.10
43681;BME280;29281;50.356;30.894;2023-03-03T01:58:41;100191.29;;;2.96;99.06
43681;BME280;29281;50.356;30.894;2023-03-03T01:59:51;100186.84;;;2.98;98.93
43681;BME280;29281;50.356;30.894;2023-03-03T02:00:53;100189.25;;;3.04;99.11
43681;BME280;29281;50.356;30.894;2023-03-03T02:01:57;100193.29;;;3.13;98.93
43681;BME280;29281;50.356;30.894;2023-03-03T02:03:03;100189.81;;;3.12;98.28
43681;BME280;29281;50.356;30.894;2023-03-03T02:04:07;100191.52;;;3.13;98.36
43681;BME280;29281;50.356;30.894;2023-03-03T02:05:10;100192.59;;;3.08;98.63
43681;BME280;29281;50.356;30.894;2023-03-03T02:06:17;100194.09;;;3.15;97.91
43681;BME280;29281;50.356;30.894;2023-03-03T02:07:23;100192.48;;;3.11;98.17
43681;BME280;29281;50.356;30.894;2023-03-03T02:08:30;100184.50;;;3.14;98.03
43681;BME280;29281;50.356;30.894;2023-03-03T02:11:01;100180.11;;;3.14;98.32
43681;BME280;29281;50.356;30.894;2023-03-03T02:12:06;100177.38;;;3.17;98.86
43681;BME280;29281;50.356;30.894;2023-03-03T02:13:14;100184.34;;;3.18;97.99
43681;BME280;29281;50.356;30.894;2023-03-03T02:14:15;100178.95;;;3.22;98.20
43681;BME280;29281;50.356;30.894;2023-03-03T02:15:26;100169.25;;;3.24;97.81
43681;BME280;29281;50.356;30.894;2023-03-03T02:16:25;100175.30;;;3.26;97.53
43681;BME280;29281;50.356;30.894;2023-03-03T02:17:30;100185.64;;;3.30;97.87
43681;BME280;29281;50.356;30.894;2023-03-03T02:18:33;100174.34;;;3.28;97.12
43681;BME280;29281;50.356;30.894;2023-03-03T02:20:48;100177.07;;;3.25;97.22
43681;BME280;29281;50.356;30.894;2023-03-03T02:21:51;100173.84;;;3.18;96.97
43681;BME280;29281;50.356;30.894;2023-03-03T02:22:57;100173.79;;;3.20;97.21
43681;BME280;29281;50.356;30.894;2023-03-03T02:24:04;100171.22;;;3.18;97.22
43681;BME280;29281;50.356;30.894;2023-03-03T02:25:12;100165.77;;;3.23;97.18
43681;BME280;29281;50.356;30.894;2023-03-03T02:26:15;100177.07;;;3.25;96.87
43681;BME280;29281;50.356;30.894;2023-03-03T02:27:21;100170.36;;;3.18;97.25
43681;BME280;29281;50.356;30.894;2023-03-03T02:28:27;100173.09;;;3.15;97.45
43681;BME280;29281;50.356;30.894;2023-03-03T02:29:31;100174.17;;;3.09;97.54
43681;BME280;29281;50.356;30.894;2023-03-03T02:30:39;100178.56;;;3.09;98.33
43681;BME280;29281;50.356;30.894;2023-03-03T02:31:42;100174.98;;;3.11;98.20
43681;BME280;29281;50.356;30.894;2023-03-03T02:32:45;100165.55;;;3.06;98.41
43681;BME280;29281;50.356;30.894;2023-03-03T02:33:51;100174.37;;;3.05;99.15
43681;BME280;29281;50.356;30.894;2023-03-03T02:34:53;100170.47;;;3.15;98.81
43681;BME280;29281;50.356;30.894;2023-03-03T02:35:59;100169.40;;;3.21;98.64
43681;BME280;29281;50.356;30.894;2023-03-03T02:37:03;100161.33;;;3.25;97.86
43681;BME280;29281;50.356;30.894;2023-03-03T02:38:13;100165.55;;;3.29;97.35
43681;BME280;29281;50.356;30.894;2023-03-03T02:39:20;100163.84;;;3.28;97.71
43681;BME280;29281;50.356;30.894;2023-03-03T02:40:24;100164.64;;;3.30;97.29
43681;BME280;29281;50.356;30.894;2023-03-03T02:42:44;100168.34;;;3.25;97.47
43681;BME280;29281;50.356;30.894;2023-03-03T02:43:51;100169.40;;;3.21;97.39
43681;BME280;29281;50.356;30.894;2023-03-03T02:44:57;100169.25;;;3.24;97.93
43681;BME280;29281;50.356;30.894;2023-03-03T02:46:03;100160.67;;;3.20;97.90
43681;BME280;29281;50.356;30.894;2023-03-03T02:47:06;100171.85;;;3.02;98.68
43681;BME280;29281;50.356;30.894;2023-03-03T02:48:10;100164.04;;;3.00;100.00
43681;BME280;29281;50.356;30.894;2023-03-03T02:49:15;100160.25;;;3.07;99.38
43681;BME280;29281;50.356;30.894;2023-03-03T02:50:19;100159.70;;;2.99;99.06
43681;BME280;29281;50.356;30.894;2023-03-03T02:51:22;100157.88;;;3.01;99.56
43681;BME280;29281;50.356;30.894;2023-03-03T02:52:26;100156.06;;;3.03;99.04
43681;BME280;29281;50.356;30.894;2023-03-03T02:53:30;100158.54;;;3.06;98.73
43681;BME280;29281;50.356;30.894;2023-03-03T02:54:35;100160.72;;;2.95;99.49
43681;BME280;29281;50.356;30.894;2023-03-03T02:55:39;100158.48;;;3.08;99.21
43681;BME280;29281;50.356;30.894;2023-03-03T02:56:44;100154.92;;;2.87;99.65
43681;BME280;29281;50.356;30.894;2023-03-03T02:57:48;100147.32;;;2.79;100.00
43681;BME280;29281;50.356;30.894;2023-03-03T02:58:51;100153.88;;;2.68;100.00
43681;BME280;29281;50.356;30.894;2023-03-03T02:59:55;100146.46;;;2.79;100.00
43681;BME280;29281;50.356;30.894;2023-03-03T03:00:58;100153.20;;;2.86;100.00
43681;BME280;29281;50.356;30.894;2023-03-03T03:02:02;100150.69;;;2.83;100.00
43681;BME280;29281;50.356;30.894;2023-03-03T03:03:05;100149.67;;;2.87;100.00
43681;BME280;29281;50.356;30.894;2023-03-03T03:04:15;100151.66;;;2.80;100.00
43681;BME280;29281;50.356;30.894;2023-03-03T03:05:21;100149.09;;;2.79;100.00
43681;BME280;29281;50.356;30.894;2023-03-03T03:06:24;100147.32;;;2.79;100.00
43681;BME280;29281;50.356;30.894;2023-03-03T03:07:28;100150.69;;;2.83;100.00
43681;BME280;29281;50.356;30.894;2023-03-03T03:08:32;100145.39;;;2.85;100.00
43681;BME280;29281;50.356;30.894;2023-03-03T03:09:35;100144.88;;;2.98;100.00
43681;BME280;29281;50.356;30.894;2023-03-03T03:10:39;100152.38;;;3.07;100.00
43681;BME280;29281;50.356;30.894;2023-03-03T03:11:43;100147.19;;;3.06;100.00
43681;BME280;29281;50.356;30.894;2023-03-03T03:12:46;100147.02;;;3.10;99.89
43681;BME280;29281;50.356;30.894;2023-03-03T03:13:50;100149.76;;;3.07;99.65
43681;BME280;29281;50.356;30.894;2023-03-03T03:14:55;100147.33;;;3.03;99.93
43681;BME280;29281;50.356;30.894;2023-03-03T03:15:59;100142.41;;;2.94;100.00
43681;BME280;29281;50.356;30.894;2023-03-03T03:17:04;100148.35;;;2.99;100.00
43681;BME280;29281;50.356;30.894;2023-03-03T03:18:06;100143.66;;;3.07;100.00
43681;BME280;29281;50.356;30.894;2023-03-03T03:19:13;100145.56;;;3.03;99.98
43681;BME280;29281;50.356;30.894;2023-03-03T03:20:18;100148.30;;;3.00;100.00
43681;BME280;29281;50.356;30.894;2023-03-03T03:21:24;100149.09;;;3.02;100.00
43681;BME280;29281;50.356;30.894;2023-03-03T03:22:26;100138.61;;;3.02;100.00
43681;BME280;29281;50.356;30.894;2023-03-03T03:23:28;100142.03;;;3.04;100.00
43681;BME280;29281;50.356;30.894;2023-03-03T03:24:32;100141.94;;;3.06;100.00
43681;BME280;29281;50.356;30.894;2023-03-03T03:25:38;100144.29;;;3.13;99.66
43681;BME280;29281;50.356;30.894;2023-03-03T03:26:45;100138.93;;;3.16;99.25
43681;BME280;29281;50.356;30.894;2023-03-03T03:27:49;100139.05;;;3.13;98.96
43681;BME280;29281;50.356;30.894;2023-03-03T03:28:55;100137.50;;;3.08;99.11
43681;BME280;29281;50.356;30.894;2023-03-03T03:30:01;100133.99;;;2.86;100.00
43681;BME280;29281;50.356;30.894;2023-03-03T03:31:05;100132.72;;;2.96;100.00
43681;BME280;29281;50.356;30.894;2023-03-03T03:32:09;100135.51;;;2.91;100.00
43681;BME280;29281;50.356;30.894;2023-03-03T03:33:13;100126.62;;;2.95;100.00
43681;BME280;29281;50.356;30.894;2023-03-03T03:34:16;100129.19;;;2.97;100.00
43681;BME280;29281;50.356;30.894;2023-03-03T03:35:22;100129.08;;;3.00;100.00
43681;BME280;29281;50.356;30.894;2023-03-03T03:36:26;100129.08;;;3.00;100.00
43681;BME280;29281;50.356;30.894;2023-03-03T03:37:30;100129.98;;;2.99;100.00
43681;BME280;29281;50.356;30.894;2023-03-03T03:38:35;100129.68;;;3.06;100.00
43681;BME280;29281;50.356;30.894;2023-03-03T03:39:39;100131.34;;;3.09;99.67
43681;BME280;29281;50.356;30.894;2023-03-03T03:40:43;100130.20;;;3.16;99.51
43681;BME280;29281;50.356;30.894;2023-03-03T03:41:47;100131.11;;;3.15;99.19
43681;BME280;29281;50.356;30.894;2023-03-03T03:42:52;100128.60;;;3.12;99.24
43681;BME280;29281;50.356;30.894;2023-03-03T03:43:55;100122.27;;;3.17;99.31
43681;BME280;29281;50.356;30.894;2023-03-03T03:45:00;100122.39;;;3.14;98.80
43681;BME280;29281;50.356;30.894;2023-03-03T03:46:04;100125.48;;;3.02;99.84
43681;BME280;29281;50.356;30.894;2023-03-03T03:47:08;100119.11;;;2.86;100.00
43681;BME280;29281;50.356;30.894;2023-03-03T03:48:12;100127.78;;;2.88;100.00
43681;BME280;29281;50.356;30.894;2023-03-03T03:49:18;100120.35;;;2.99;100.00
43681;BME280;29281;50.356;30.894;2023-03-03T03:50:23;100121.09;;;3.03;100.00
43681;BME280;29281;50.356;30.894;2023-03-03T03:51:27;100116.45;;;3.09;99.93
43681;BME280;29281;50.356;30.894;2023-03-03T03:52:31;100114.88;;;3.05;100.00
43681;BME280;29281;50.356;30.894;2023-03-03T03:53:34;100116.81;;;3.00;99.99
43681;BME280;29281;50.356;30.894;2023-03-03T03:54:36;100120.05;;;3.07;100.00
43681;BME280;29281;50.356;30.894;2023-03-03T03:55:40;100109.75;;;3.02;99.99
43681;BME280;29281;50.356;30.894;2023-03-03T03:56:44;100112.76;;;2.92;100.00
43681;BME280;29281;50.356;30.894;2023-03-03T03:57:48;100114.47;;;2.93;100.00
43681;BME280;29281;50.356;30.894;2023-03-03T03:58:52;100109.09;;;2.74;100.00
43681;BME280;29281;50.356;30.894;2023-03-03T03:59:56;100109.09;;;2.74;100.00
43681;BME280;29281;50.356;30.894;2023-03-03T04:01:03;100114.83;;;2.83;100.00
43681;BME280;29281;50.356;30.894;2023-03-03T04:02:08;100110.16;;;2.68;100.00
43681;BME280;29281;50.356;30.894;2023-03-03T04:03:13;100107.23;;;2.76;100.00
43681;BME280;29281;50.356;30.894;2023-03-03T04:04:16;100101.94;;;2.77;100.00
43681;BME280;29281;50.356;30.894;2023-03-03T04:05:18;100107.19;;;2.77;100.00
43681;BME280;29281;50.356;30.894;2023-03-03T04:06:22;100101.66;;;2.85;100.00
43681;BME280;29281;50.356;30.894;2023-03-03T04:07:28;100106.97;;;2.83;100.00
43681;BME280;29281;50.356;30.894;2023-03-03T04:08:32;100099.05;;;2.85;100.00
43681;BME280;29281;50.356;30.894;2023-03-03T04:09:35;100099.53;;;2.95;100.00
43681;BME280;29281;50.356;30.894;2023-03-03T04:10:38;100103.70;;;3.00;100.00
43681;BME280;29281;50.356;30.894;2023-03-03T04:11:42;100097.11;;;2.90;100.00
43681;BME280;29281;50.356;30.894;2023-03-03T04:12:48;100100.70;;;2.88;100.00
43681;BME280;29281;50.356;30.894;2023-03-03T04:13:52;100096.11;;;2.93;100.00
43681;BME280;29281;50.356;30.894;2023-03-03T04:14:55;100098.79;;;2.91;100.00
43681;BME280;29281;50.356;30.894;2023-03-03T04:16:01;100098.93;;;2.88;100.00
43681;BME280;29281;50.356;30.894;2023-03-03T04:17:05;100098.23;;;2.83;100.00
43681;BME280;29281;50.356;30.894;2023-03-03T04:18:09;100084.27;;;2.82;100.00
43681;BME280;29281;50.356;30.894;2023-03-03T04:19:14;100083.20;;;2.88;100.00
43681;BME280;29281;50.356;30.894;2023-03-03T04:20:20;100090.59;;;3.00;100.00
43681;BME280;29281;50.356;30.894;2023-03-03T04:21:23;100090.22;;;3.09;100.00
43681;BME280;29281;50.356;30.894;2023-03-03T04:22:28;100083.88;;;3.15;100.00
43681;BME280;29281;50.356;30.894;2023-03-03T04:23:33;100091.18;;;3.07;100.00
43681;BME280;29281;50.356;30.894;2023-03-03T04:24:37;100084.85;;;3.12;100.00
43681;BME280;29281;50.356;30.894;2023-03-03T04:25:42;100089.36;;;3.09;100.00
43681;BME280;29281;50.356;30.894;2023-03-03T04:26:47;100088.65;;;3.05;100.00
43681;BME280;29281;50.356;30.894;2023-03-03T04:27:52;100085.23;;;3.03;100.00
43681;BME280;29281;50.356;30.894;2023-03-03T04:28:57;100076.78;;;2.95;100.00
43681;BME280;29281;50.356;30.894;2023-03-03T04:30:01;100087.91;;;3.02;100.00
43681;BME280;29281;50.356;30.894;2023-03-03T04:31:05;100075.27;;;3.11;100.00
43681;BME280;29281;50.356;30.894;2023-03-03T04:32:09;100078.81;;;3.10;100.00
43681;BME280;29281;50.356;30.894;2023-03-03T04:33:18;100075.09;;;3.16;100.00
43681;BME280;29281;50.356;30.894;2023-03-03T04:34:20;100073.45;;;3.13;100.00
43681;BME280;29281;50.356;30.894;2023-03-03T04:35:23;100073.27;;;3.18;99.73
43681;BME280;29281;50.356;30.894;2023-03-03T04:36:27;100077.75;;;2.93;100.00
43681;BME280;29281;50.356;30.894;2023-03-03T04:37:32;100073.02;;;3.02;100.00
43681;BME280;29281;50.356;30.894;2023-03-03T04:38:37;100066.72;;;3.06;100.00
43681;BME280;29281;50.356;30.894;2023-03-03T04:39:40;100065.27;;;2.99;100.00
43681;BME280;29281;50.356;30.894;2023-03-03T04:40:44;100067.45;;;3.10;100.00
43681;BME280;29281;50.356;30.894;2023-03-03T04:41:51;100073.82;;;3.04;100.00
43681;BME280;29281;50.356;30.894;2023-03-03T04:42:55;100060.13;;;2.74;100.00
43681;BME280;29281;50.356;30.894;2023-03-03T04:44:05;100070.68;;;2.95;100.00
43681;BME280;29281;50.356;30.894;2023-03-03T04:45:09;100065.43;;;2.95;100.00
43681;BME280;29281;50.356;30.894;2023-03-03T04:46:12;100066.94;;;2.78;100.00
43681;BME280;29281;50.356;30.894;2023-03-03T04:47:16;100063.40;;;2.79;100.00
43681;BME280;29281;50.356;30.894;2023-03-03T04:48:21;100058.53;;;2.92;100.00
43681;BME280;29281;50.356;30.894;2023-03-03T04:49:26;100059.75;;;2.83;100.00
43681;BME280;29281;50.356;30.894;2023-03-03T04:50:31;100070.02;;;2.90;100.00
43681;BME280;29281;50.356;30.894;2023-03-03T04:51:35;100060.56;;;2.86;100.00
43681;BME280;29281;50.356;30.894;2023-03-03T04:52:38;100067.52;;;2.87;100.00
43681;BME280;29281;50.356;30.894;2023-03-03T04:53:42;100070.87;;;2.90;100.00
43681;BME280;29281;50.356;30.894;2023-03-03T04:54:45;100074.95;;;2.97;100.00
43681;BME280;29281;50.356;30.894;2023-03-03T04:55:51;100069.23;;;3.09;100.00
43681;BME280;29281;50.356;30.894;2023-03-03T04:56:56;100071.73;;;3.12;100.00
43681;BME280;29281;50.356;30.894;2023-03-03T04:58:00;100069.88;;;2.93;100.00
43681;BME280;29281;50.356;30.894;2023-03-03T04:59:03;100073.30;;;2.95;100.00
43681;BME280;29281;50.356;30.894;2023-03-03T05:00:08;100075.39;;;3.08;100.00
43681;BME280;29281;50.356;30.894;2023-03-03T05:01:13;100070.94;;;2.89;100.00
43681;BME280;29281;50.356;30.894;2023-03-03T05:02:18;100072.05;;;3.05;100.00
43681;BME280;29281;50.356;30.894;2023-03-03T05:03:22;100071.79;;;3.11;100.00
43681;BME280;29281;50.356;30.894;2023-03-03T05:04:26;100069.80;;;3.17;100.00
43681;BME280;29281;50.356;30.894;2023-03-03T05:05:29;100071.56;;;3.17;99.68
43681;BME280;29281;50.356;30.894;2023-03-03T05:06:32;100073.39;;;3.15;99.88
43681;BME280;29281;50.356;30.894;2023-03-03T05:07:35;100071.67;;;3.14;99.47
43681;BME280;29281;50.356;30.894;2023-03-03T05:08:37;100071.06;;;3.29;98.91
43681;BME280;29281;50.356;30.894;2023-03-03T05:09:40;100074.16;;;3.39;98.60
43681;BME280;29281;50.356;30.894;2023-03-03T05:10:44;100072.78;;;3.30;98.37
43681;BME280;29281;50.356;30.894;2023-03-03T05:11:50;100074.53;;;3.08;99.50
43681;BME280;29281;50.356;30.894;2023-03-03T05:12:55;100070.14;;;3.08;100.00
43681;BME280;29281;50.356;30.894;2023-03-03T05:13:59;100070.40;;;3.02;100.00
43681;BME280;29281;50.356;30.894;2023-03-03T05:15:02;100068.69;;;3.01;100.00
43681;BME280;29281;50.356;30.894;2023-03-03T05:16:06;100070.02;;;3.11;100.00
43681;BME280;29281;50.356;30.894;2023-03-03T05:17:16;100071.45;;;3.20;99.93
43681;BME280;29281;50.356;30.894;2023-03-03T05:18:20;100068.55;;;3.26;99.28
43681;BME280;29281;50.356;30.894;2023-03-03T05:19:23;100074.55;;;3.30;99.29
43681;BME280;29281;50.356;30.894;2023-03-03T05:20:29;100067.87;;;3.21;99.67
43681;BME280;29281;50.356;30.894;2023-03-03T05:21:33;100072.89;;;3.27;99.21
43681;BME280;29281;50.356;30.894;2023-03-03T05:22:38;100074.66;;;3.27;99.14
43681;BME280;29281;50.356;30.894;2023-03-03T05:23:41;100078.88;;;3.31;99.07
43681;BME280;29281;50.356;30.894;2023-03-03T05:24:44;100075.41;;;3.30;98.80
43681;BME280;29281;50.356;30.894;2023-03-03T05:25:52;100074.78;;;3.24;99.04
43681;BME280;29281;50.356;30.894;2023-03-03T05:26:55;100068.94;;;3.17;99.35
43681;BME280;29281;50.356;30.894;2023-03-03T05:27:58;100078.03;;;3.30;99.36
43681;BME280;29281;50.356;30.894;2023-03-03T05:29:02;100069.83;;;3.38;98.57
43681;BME280;29281;50.356;30.894;2023-03-03T05:30:08;100077.05;;;3.33;98.45
43681;BME280;29281;50.356;30.894;2023-03-03T05:31:12;100071.42;;;3.42;98.77
43681;BME280;29281;50.356;30.894;2023-03-03T05:32:16;100076.94;;;3.36;98.32
43681;BME280;29281;50.356;30.894;2023-03-03T05:33:19;100070.33;;;3.47;98.13
43681;BME280;29281;50.356;30.894;2023-03-03T05:34:22;100062.97;;;3.56;97.46
43681;BME280;29281;50.356;30.894;2023-03-03T05:35:26;100074.05;;;3.42;97.74
43681;BME280;29281;50.356;30.894;2023-03-03T05:36:30;100067.27;;;3.36;98.51
43681;BME280;29281;50.356;30.894;2023-03-03T05:37:33;100071.06;;;3.29;98.50
43681;BME280;29281;50.356;30.894;2023-03-03T05:38:36;100069.12;;;3.34;98.86
43681;BME280;29281;50.356;30.894;2023-03-03T05:39:40;100069.77;;;3.39;98.78
43681;BME280;29281;50.356;30.894;2023-03-03T05:40:44;100058.97;;;3.47;98.24
43681;BME280;29281;50.356;30.894;2023-03-03T05:41:49;100057.20;;;3.47;97.92
43681;BME280;29281;50.356;30.894;2023-03-03T05:42:52;100074.60;;;3.50;97.88
43681;BME280;29281;50.356;30.894;2023-03-03T05:43:55;100063.71;;;3.59;97.35
43681;BME280;29281;50.356;30.894;2023-03-03T05:44:58;100066.16;;;3.64;96.88
43681;BME280;29281;50.356;30.894;2023-03-03T05:46:03;100061.42;;;3.72;96.77